Time;durP1;ratioP1;P1;durP2;ratioP2;P2;SDS_P1;SDS_P2;PMS_P1;PMS_P2;Temp;Humidity;BMP_temperature;BMP_pressure;BME280_temperature;BME280_humidity;BME280_pressure;Samples;Min_cycle;Max_cycle;Signal;HPM_P1;HPM_P2
2022/01/30 00:04:01;;;;;;;3.92;3.30;;;;;;;5.23;100.00;98998.44;10423208;28;20439;-78
2022/01/30 00:09:03;;;;;;;3.75;2.70;;;;;;;5.23;100.00;98995.78;10413228;28;20058;-78
2022/01/30 00:14:05;;;;;;;2.75;2.53;;;;;;;5.23;100.00;99002.97;10398169;28;20054;-80
2022/01/30 00:19:22;;;;;;;4.40;2.25;;;;;;;5.20;100.00;99016.78;10396505;28;20045;-78
2022/01/30 00:24:34;;;;;;;3.10;1.85;;;;;;;5.20;100.00;99006.94;10407528;28;20060;-77
2022/01/30 00:29:34;;;;;;;2.40;2.20;;;;;;;5.20;100.00;99006.94;10403243;28;20045;-78
2022/01/30 00:34:35;;;;;;;2.65;2.30;;;;;;;5.26;100.00;98997.88;10381706;28;20111;-78
2022/01/30 00:39:35;;;;;;;3.03;2.50;;;;;;;5.27;100.00;99009.34;10380325;28;20058;-78
2022/01/30 00:44:36;;;;;;;4.00;2.65;;;;;;;5.24;100.00;99015.19;10401258;28;20166;-78
2022/01/30 00:49:36;;;;;;;3.80;3.08;;;;;;;5.20;100.00;99020.25;10395948;28;20053;-77
2022/01/30 00:54:37;;;;;;;3.40;3.10;;;;;;;5.09;100.00;99035.44;10394936;28;20119;-78
2022/01/30 00:59:38;;;;;;;4.57;2.92;;;;;;;5.03;100.00;99027.72;10405903;28;20157;-77
2022/01/30 01:04:38;;;;;;;3.15;2.83;;;;;;;4.97;100.00;99032.28;10412736;28;20156;-77
2022/01/30 01:09:40;;;;;;;4.32;2.60;;;;;;;4.91;100.00;99025.34;10427983;28;20049;-77
2022/01/30 01:25:18;;;;;;;4.15;2.58;;;;;;;4.90;100.00;99020.31;10393555;28;20457;-77
2022/01/30 01:30:19;;;;;;;4.05;2.20;;;;;;;4.87;100.00;99026.16;10411075;28;20037;-78
2022/01/30 01:35:21;;;;;;;4.28;2.03;;;;;;;4.84;100.00;99019.50;10413123;28;20524;-78
2022/01/30 01:40:22;;;;;;;4.93;2.22;;;;;;;4.92;100.00;99016.28;10396857;28;20111;-78
2022/01/30 01:45:25;;;;;;;5.18;2.95;;;;;;;4.95;100.00;98999.03;10390409;28;20110;-77
2022/01/30 01:50:39;;;;;;;4.13;2.83;;;;;;;4.81;100.00;98985.47;10394971;28;20053;-77
2022/01/30 01:55:44;;;;;;;4.07;2.30;;;;;;;4.91;100.00;98988.09;10371093;28;20091;-79
2022/01/30 02:01:19;;;;;;;7.20;2.40;;;;;;;4.82;100.00;98990.50;10392999;28;20058;-79
2022/01/30 02:07:13;;;;;;;3.92;2.55;;;;;;;4.80;100.00;98974.03;10396680;28;20053;-79
2022/01/30 02:12:20;;;;;;;6.05;2.70;;;;;;;4.82;100.00;98982.53;10400856;28;20081;-79
2022/01/30 02:28:12;;;;;;;8.57;3.30;;;;;;;4.75;100.00;98974.03;10399487;28;20053;-80
2022/01/30 02:33:14;;;;;;;5.78;2.88;;;;;;;4.88;100.00;98986.00;10370514;28;20064;-79
2022/01/30 02:38:16;;;;;;;7.50;3.15;;;;;;;4.86;100.00;98985.47;10408395;28;20141;-79
2022/01/30 02:43:21;;;;;;;5.57;2.80;;;;;;;4.90;100.00;98991.03;10386050;28;20054;-79
2022/01/30 02:48:33;;;;;;;4.93;3.03;;;;;;;4.84;100.00;98996.34;10414275;28;20045;-81
2022/01/30 02:53:39;;;;;;;7.55;3.20;;;;;;;4.83;100.00;98980.66;10423878;28;20041;-80
2022/01/30 02:58:41;;;;;;;11.70;3.70;;;;;;;4.91;100.00;98971.34;10401101;28;20053;-80
2022/01/30 03:03:42;;;;;;;6.53;3.30;;;;;;;4.97;100.00;98971.09;10394632;28;20074;-81
2022/01/30 03:08:42;;;;;;;10.55;3.33;;;;;;;5.05;100.00;98970.53;10405809;28;20107;-81
2022/01/30 03:13:43;;;;;;;6.28;3.10;;;;;;;5.05;100.00;98970.53;10425627;28;20050;-80
2022/01/30 03:18:47;;;;;;;10.63;3.92;;;;;;;5.07;100.00;98971.06;10383785;28;20057;-80
2022/01/30 03:23:50;;;;;;;8.60;3.45;;;;;;;5.13;100.00;98967.34;10375780;28;20586;-79
2022/01/30 03:28:56;;;;;;;7.22;3.58;;;;;;;5.11;100.00;98974.75;10385443;28;20057;-79
2022/01/30 03:34:06;;;;;;;8.68;3.60;;;;;;;5.07;100.00;98991.56;10354084;28;20145;-79
2022/01/30 03:39:18;;;;;;;6.43;2.63;;;;;;;5.16;100.00;98997.13;10410960;28;20123;-79
2022/01/30 03:44:31;;;;;;;8.02;2.88;;;;;;;5.02;100.00;99007.50;10400362;28;20069;-81
2022/01/30 03:49:43;;;;;;;6.47;3.33;;;;;;;4.97;100.00;99005.66;10404981;28;20113;-78
2022/01/30 03:54:45;;;;;;;5.22;3.15;;;;;;;4.97;100.00;99004.88;10405920;28;20050;-78
2022/01/30 03:59:46;;;;;;;6.03;2.60;;;;;;;4.91;100.00;99000.63;10391586;28;20107;-78
2022/01/30 04:04:48;;;;;;;9.15;2.85;;;;;;;4.94;100.00;99010.69;10392245;28;20057;-79
2022/01/30 04:09:49;;;;;;;5.07;2.80;;;;;;;4.85;100.00;99024.56;10386988;28;20128;-80
2022/01/30 04:15:04;;;;;;;7.68;3.00;;;;;;;4.79;100.00;99041.59;10385765;28;20053;-81
2022/01/30 04:20:26;;;;;;;11.13;3.47;;;;;;;4.88;100.00;99033.06;10394631;28;20042;-79
2022/01/30 04:25:46;;;;;;;9.68;4.28;;;;;;;4.85;100.00;99043.19;10400133;28;20061;-79
2022/01/30 04:31:06;;;;;;;12.35;3.85;;;;;;;4.87;100.00;99050.09;10388245;28;20065;-79
2022/01/30 04:36:30;;;;;;;7.07;3.35;;;;;;;4.81;100.00;99060.72;10386563;28;20119;-79
2022/01/30 04:42:04;;;;;;;6.60;3.33;;;;;;;4.79;100.00;99070.03;10427936;28;20041;-79
2022/01/30 04:53:38;;;;;;;8.38;3.20;;;;;;;4.96;100.00;99046.63;10402840;28;20648;-79
2022/01/30 05:05:08;;;;;;;8.10;3.35;;;;;;;4.90;100.00;99017.63;10359037;28;20057;-80
2022/01/30 05:10:27;;;;;;;5.38;2.80;;;;;;;4.98;100.00;99014.44;10373695;28;20050;-79
2022/01/30 05:15:42;;;;;;;10.65;2.72;;;;;;;4.89;100.00;99024.03;10396681;28;20049;-80
2022/01/30 05:21:03;;;;;;;7.50;2.70;;;;;;;4.92;100.00;99034.13;10388386;28;20536;-80
2022/01/30 05:26:25;;;;;;;8.65;2.40;;;;;;;4.90;100.00;99030.94;10399393;28;20076;-79
2022/01/30 05:31:47;;;;;;;8.50;2.60;;;;;;;4.83;100.00;99023.22;10401349;28;20049;-78
2022/01/30 05:37:19;;;;;;;5.40;2.10;;;;;;;4.77;100.00;99018.97;10402019;28;20049;-79
2022/01/30 05:42:39;;;;;;;3.13;2.00;;;;;;;4.76;100.00;99026.16;10406759;28;20037;-78
2022/01/30 05:47:54;;;;;;;8.77;2.70;;;;;;;4.78;100.00;99028.56;10413512;28;20041;-80
2022/01/30 05:53:11;;;;;;;;;;;;;;;4.57;100.00;99057.78;10408561;28;20066;-78
2022/01/30 05:58:17;;;;;;;9.18;2.67;;;;;;;4.46;100.00;99060.69;10402807;28;19951;-79
2022/01/30 06:03:49;;;;;;;8.45;2.67;;;;;;;4.30;100.00;99054.56;10408330;28;20053;-80
2022/01/30 06:09:18;;;;;;;9.85;3.15;;;;;;;4.18;100.00;99075.22;10404258;28;20052;-79
2022/01/30 06:14:30;;;;;;;7.32;2.60;;;;;;;4.12;100.00;99086.91;10431006;28;20080;-79
2022/01/30 06:19:44;;;;;;;7.85;2.28;;;;;;;4.10;100.00;99092.47;10415063;28;20045;-77
2022/01/30 06:25:05;;;;;;;9.93;2.92;;;;;;;3.96;100.00;99088.72;10410066;28;20045;-77
2022/01/30 06:30:31;;;;;;;8.77;2.58;;;;;;;3.78;100.00;99089.16;10425439;28;20038;-77
2022/01/30 06:35:50;;;;;;;6.57;2.30;;;;;;;3.73;100.00;99089.91;10417021;28;20042;-80
2022/01/30 06:41:11;;;;;;;11.15;2.90;;;;;;;3.64;100.00;99094.13;10407757;28;20137;-80
2022/01/30 06:46:30;;;;;;;8.40;2.55;;;;;;;3.64;100.00;99097.56;10406743;28;20149;-78
2022/01/30 06:51:49;;;;;;;8.23;2.60;;;;;;;3.57;100.00;99086.41;10426887;28;20054;-78
2022/01/30 06:57:21;;;;;;;8.48;2.40;;;;;;;3.55;100.00;99083.19;10417980;28;20366;-80
2022/01/30 07:02:57;;;;;;;6.30;2.85;;;;;;;3.56;100.00;99082.13;10369867;28;20046;-78
2022/01/30 07:08:21;;;;;;;9.27;2.63;;;;;;;3.66;100.00;99094.69;10402419;28;20458;-78
2022/01/30 07:13:23;;;;;;;7.50;2.67;;;;;;;3.44;100.00;99081.53;10383629;28;20315;-79
2022/01/30 07:18:24;;;;;;;9.82;3.17;;;;;;;3.53;100.00;99073.88;10404234;28;20797;-80
2022/01/30 07:23:27;;;;;;;10.95;2.65;;;;;;;3.54;100.00;99075.50;10392055;28;20046;-80
2022/01/30 07:28:30;;;;;;;11.30;3.20;;;;;;;3.55;100.00;99071.78;10405482;28;20061;-81
2022/01/30 07:33:35;;;;;;;8.75;2.67;;;;;;;3.61;100.00;99078.72;10390924;28;20603;-82
2022/01/30 07:38:37;;;;;;;8.32;3.15;;;;;;;3.68;100.00;99090.72;10398195;28;20442;-78
2022/01/30 07:43:39;;;;;;;8.10;3.03;;;;;;;3.83;100.00;99087.31;10397281;28;20042;-80
2022/01/30 07:48:42;;;;;;;10.40;2.95;;;;;;;3.89;100.00;99117.34;10390753;28;20237;-77
2022/01/30 07:53:45;;;;;;;8.48;2.72;;;;;;;3.87;100.00;99122.94;10401860;28;20055;-78
2022/01/30 07:58:46;;;;;;;9.48;2.75;;;;;;;3.91;100.00;99124.00;10402127;28;20054;-79
2022/01/30 08:03:48;;;;;;;7.53;3.33;;;;;;;4.11;100.00;99119.84;10388743;28;20081;-79
2022/01/30 08:08:50;;;;;;;9.70;3.40;;;;;;;4.21;100.00;99123.34;10410196;28;20049;-79
2022/01/30 08:13:52;;;;;;;12.83;3.20;;;;;;;4.05;100.00;99132.31;10393930;28;20069;-80
2022/01/30 08:18:53;;;;;;;8.25;2.88;;;;;;;4.20;100.00;99152.81;10417461;28;20069;-79
2022/01/30 08:24:00;;;;;;;5.50;2.38;;;;;;;4.34;100.00;99159.25;10588398;23;20049;-78
2022/01/30 08:29:09;;;;;;;7.07;3.03;;;;;;;4.23;100.00;99158.44;10383753;28;20065;-77
2022/01/30 08:34:10;;;;;;;17.10;3.42;;;;;;;4.23;100.00;99176.22;10386036;28;20539;-80
2022/01/30 08:39:11;;;;;;;12.43;3.42;;;;;;;4.48;100.00;99173.69;10387818;28;20093;-77
2022/01/30 08:44:12;;;;;;;8.18;2.30;;;;;;;4.65;100.00;99180.63;10379832;28;20041;-79
2022/01/30 08:49:14;;;;;;;8.38;2.92;;;;;;;4.32;100.00;99174.66;10369028;28;20050;-79
2022/01/30 08:54:15;;;;;;;12.40;2.88;;;;;;;4.19;100.00;99202.50;10377829;28;20096;-79
2022/01/30 08:59:18;;;;;;;8.32;2.88;;;;;;;4.34;100.00;99215.06;10374574;28;20061;-76
2022/01/30 09:04:20;;;;;;;13.83;3.47;;;;;;;4.59;100.00;99230.34;10378630;28;20141;-77
2022/01/30 09:09:21;;;;;;;8.50;2.42;;;;;;;4.67;100.00;99235.16;10381409;28;21202;-78
2022/01/30 09:14:24;;;;;;;10.18;2.33;;;;;;;4.76;100.00;99225.63;10390612;28;20046;-77
2022/01/30 09:19:25;;;;;;;7.25;3.85;;;;;;;4.75;100.00;99247.91;10380478;28;20049;-76
2022/01/30 09:24:25;;;;;;;12.20;3.05;;;;;;;4.83;100.00;99255.41;10379378;28;20550;-78
2022/01/30 09:29:27;;;;;;;8.73;2.28;;;;;;;4.79;100.00;99259.66;10362161;28;20073;-78
2022/01/30 09:34:28;;;;;;;10.65;2.55;;;;;;;4.72;100.00;99276.91;10374165;28;20054;-75
2022/01/30 09:39:28;;;;;;;10.02;2.72;;;;;;;4.66;100.00;99272.63;10362812;28;20100;-79
2022/01/30 09:44:34;;;;;;;10.25;3.60;;;;;;;4.72;100.00;99261.75;10367167;28;20058;-77
2022/01/30 09:49:38;;;;;;;11.13;2.65;;;;;;;4.70;100.00;99263.06;10368351;28;20104;-76
2022/01/30 09:54:39;;;;;;;8.13;2.30;;;;;;;4.80;100.00;99253.28;10364050;28;20112;-77
2022/01/30 09:59:40;;;;;;;11.10;3.00;;;;;;;4.98;100.00;99238.69;10372164;28;20037;-78
2022/01/30 10:04:41;;;;;;;7.22;2.75;;;;;;;4.98;100.00;99241.34;10394074;28;20046;-77
2022/01/30 10:09:48;;;;;;;8.82;2.38;;;;;;;4.99;100.00;99264.22;10360838;28;20521;-77
2022/01/30 10:15:15;;;;;;;5.85;2.05;;;;;;;5.19;100.00;99274.13;10366671;28;20109;-76
2022/01/30 10:20:21;;;;;;;7.82;2.50;;;;;;;5.28;100.00;99280.53;10369373;28;20112;-77
2022/01/30 10:25:34;;;;;;;5.25;2.40;;;;;;;5.16;100.00;99287.97;10356977;28;20545;-76
2022/01/30 10:30:43;;;;;;;8.57;3.20;;;;;;;5.22;100.00;99294.13;10369152;28;20096;-77
2022/01/30 10:35:47;;;;;;;9.63;2.80;;;;;;;5.13;100.00;99323.91;10368161;28;20515;-77
2022/01/30 10:40:54;;;;;;;9.02;3.20;;;;;;;5.14;100.00;99324.69;10368064;28;20069;-78
2022/01/30 10:45:54;;;;;;;10.50;2.63;;;;;;;5.06;100.00;99319.88;10366479;28;20050;-81
2022/01/30 10:50:55;;;;;;;9.10;2.45;;;;;;;4.98;100.00;99325.69;10362910;28;20054;-77
2022/01/30 10:55:58;;;;;;;10.63;2.70;;;;;;;5.03;100.00;99313.22;10363550;28;20128;-76
2022/01/30 11:01:00;;;;;;;13.60;2.67;;;;;;;4.97;100.00;99310.78;10387284;28;20058;-77
2022/01/30 11:06:07;;;;;;;7.53;2.47;;;;;;;5.07;100.00;99316.16;10386902;28;20058;-77
2022/01/30 11:11:39;;;;;;;10.10;2.65;;;;;;;4.89;100.00;99327.25;10370793;28;20062;-76
2022/01/30 11:21:59;;;;;;;7.40;2.67;;;;;;;4.92;100.00;99338.16;10362421;28;20089;-76
2022/01/30 11:27:00;;;;;;;9.20;3.00;;;;;;;4.82;100.00;99338.91;10373016;28;20050;-78
2022/01/30 11:32:05;;;;;;;8.60;2.80;;;;;;;4.90;100.00;99344.81;10384256;28;20057;-78
2022/01/30 11:37:08;;;;;;;6.35;2.47;;;;;;;5.05;100.00;99328.91;10371685;28;20055;-78
2022/01/30 11:42:09;;;;;;;;;;;;;;;4.96;100.00;99315.31;10400185;28;20053;-76
2022/01/30 11:47:15;;;;;;;12.57;3.60;;;;;;;5.02;100.00;99311.59;10401073;28;19918;-77
2022/01/30 11:52:17;;;;;;;8.25;2.67;;;;;;;4.93;100.00;99323.78;10371293;28;21387;-77
2022/01/30 11:57:18;;;;;;;6.40;2.40;;;;;;;5.03;100.00;99326.53;10363236;28;20049;-79
2022/01/30 12:02:25;;;;;;;10.23;2.63;;;;;;;5.02;100.00;99316.91;10359873;28;20108;-78
2022/01/30 12:07:35;;;;;;;10.38;2.70;;;;;;;5.22;100.00;99324.19;10368534;28;20054;-77
2022/01/30 12:13:07;;;;;;;6.00;2.33;;;;;;;5.30;100.00;99304.22;10368279;28;20050;-78
2022/01/30 12:18:14;;;;;;;10.48;3.63;;;;;;;5.32;100.00;99310.91;10370400;28;20053;-76
2022/01/30 12:23:37;;;;;;;8.55;2.55;;;;;;;5.42;100.00;99299.47;10371576;28;20050;-78
2022/01/30 12:28:58;;;;;;;12.07;3.80;;;;;;;5.59;100.00;99313.34;10370622;28;20074;-78
2022/01/30 12:34:14;;;;;;;7.05;2.80;;;;;;;5.57;100.00;99318.13;10359872;28;20042;-77
2022/01/30 12:39:27;;;;;;;11.23;3.08;;;;;;;5.44;100.00;99313.31;10361082;28;20046;-76
2022/01/30 12:44:29;;;;;;;7.13;2.50;;;;;;;5.56;100.00;99313.06;10385949;28;20670;-77
2022/01/30 12:49:39;;;;;;;7.55;2.63;;;;;;;5.76;100.00;99309.63;10375499;28;20053;-77
2022/01/30 12:54:40;;;;;;;7.60;2.75;;;;;;;5.58;100.00;99301.09;10370760;28;20058;-76
2022/01/30 12:59:50;;;;;;;12.13;3.00;;;;;;;5.68;100.00;99290.47;10374755;28;20069;-78
2022/01/30 13:05:08;;;;;;;9.02;2.53;;;;;;;5.73;100.00;99284.31;10373843;28;20073;-77
2022/01/30 13:10:12;;;;;;;6.93;2.88;;;;;;;6.45;100.00;99277.88;10368943;28;20054;-78
2022/01/30 13:15:23;;;;;;;7.15;2.80;;;;;;;7.61;98.85;99269.56;10378883;28;20448;-77
2022/01/30 13:20:28;;;;;;;10.48;2.90;;;;;;;8.06;90.00;99265.69;10361205;28;20061;-77
2022/01/30 13:25:29;;;;;;;11.05;3.08;;;;;;;7.29;91.83;99283.38;10388230;28;20050;-75
2022/01/30 13:30:30;;;;;;;8.70;2.80;;;;;;;6.49;95.10;99283.44;10366584;28;20038;-77
2022/01/30 13:35:30;;;;;;;8.68;3.30;;;;;;;6.27;96.38;99284.56;10352650;28;20153;-77
2022/01/30 13:40:44;;;;;;;12.65;3.47;;;;;;;6.24;100.00;99285.13;10376783;28;20044;-76
2022/01/30 13:50:53;;;;;;;11.07;3.63;;;;;;;6.03;94.71;99301.38;10362199;28;19917;-78
2022/01/30 13:56:01;;;;;;;7.30;2.75;;;;;;;6.05;98.20;99277.97;10358399;28;20296;-75
2022/01/30 14:01:01;;;;;;;12.63;3.42;;;;;;;5.67;96.38;99283.53;10352873;28;20100;-77
2022/01/30 14:06:15;;;;;;;8.60;2.67;;;;;;;5.80;100.00;99289.38;10361733;28;20058;-76
2022/01/30 14:11:17;;;;;;;7.45;3.00;;;;;;;5.61;99.57;99284.59;10346520;28;20117;-79
2022/01/30 14:16:19;;;;;;;13.68;3.15;;;;;;;5.64;92.00;99277.91;10375501;28;20393;-78
2022/01/30 14:21:24;;;;;;;15.70;3.23;;;;;;;5.61;97.27;99265.16;10379704;28;20050;-78
2022/01/30 14:26:29;;;;;;;8.27;2.83;;;;;;;5.37;100.00;99262.97;10370172;28;20045;-78
2022/01/30 14:31:30;;;;;;;11.25;4.65;;;;;;;5.33;100.00;99280.56;10365512;28;20050;-77
2022/01/30 14:36:33;;;;;;;11.73;3.25;;;;;;;5.38;100.00;99280.53;10374057;28;20053;-77
2022/01/30 14:41:33;;;;;;;9.70;3.20;;;;;;;5.21;100.00;99288.00;10351908;28;20062;-79
2022/01/30 14:46:34;;;;;;;10.45;3.30;;;;;;;5.15;99.72;99302.34;10366428;28;20069;-79
2022/01/30 14:51:35;;;;;;;11.10;3.28;;;;;;;5.08;100.00;99302.56;10367339;28;20068;-79
2022/01/30 14:56:35;;;;;;;9.52;2.95;;;;;;;5.25;100.00;99297.03;10364016;28;20414;-78
2022/01/30 15:01:36;;;;;;;11.63;2.83;;;;;;;5.25;100.00;99301.56;10376866;28;20053;-79
2022/01/30 15:06:37;;;;;;;8.63;2.63;;;;;;;5.08;100.00;99302.56;10396497;28;20038;-79
2022/01/30 15:11:47;;;;;;;7.15;3.00;;;;;;;5.06;100.00;99301.25;10382337;28;20046;-81
2022/01/30 15:16:50;;;;;;;8.98;2.80;;;;;;;4.77;100.00;99295.56;10392482;28;20065;-82
2022/01/30 15:21:51;;;;;;;18.57;3.37;;;;;;;4.62;100.00;99296.28;10383410;28;20508;-82
2022/01/30 15:26:51;;;;;;;10.82;3.13;;;;;;;4.65;100.00;99301.06;10387059;28;20055;-79
2022/01/30 15:31:53;;;;;;;9.85;2.97;;;;;;;4.59;100.00;99302.13;10397694;28;20080;-78
2022/01/30 15:36:56;;;;;;;13.68;3.70;;;;;;;4.52;100.00;99310.31;10389115;28;20054;-79
2022/01/30 15:41:57;;;;;;;7.15;2.70;;;;;;;4.52;100.00;99312.19;10388195;28;20046;-79
2022/01/30 15:52:20;;;;;;;14.27;3.70;;;;;;;4.42;100.00;99312.91;10356983;28;20053;-77
2022/01/30 15:57:23;;;;;;;17.65;3.40;;;;;;;4.37;100.00;99301.44;10364600;28;20047;-79
2022/01/30 16:02:24;;;;;;;15.45;3.92;;;;;;;4.25;100.00;99301.66;10383975;28;20046;-79
2022/01/30 16:07:26;;;;;;;9.18;3.55;;;;;;;4.19;100.00;99292.03;10383660;28;20026;-77
2022/01/30 16:17:46;;;;;;;9.15;3.38;;;;;;;3.96;100.00;99295.88;10392178;28;20394;-78
2022/01/30 16:22:46;;;;;;;13.63;3.92;;;;;;;3.89;100.00;99292.63;10367903;28;20063;-77
2022/01/30 16:27:47;;;;;;;9.98;3.33;;;;;;;3.95;100.00;99296.94;10371604;28;20050;-79
2022/01/30 16:32:48;;;;;;;9.35;4.00;;;;;;;3.88;100.00;99301.66;10374092;28;20080;-78
2022/01/30 16:37:48;;;;;;;10.00;3.47;;;;;;;3.95;100.00;99299.59;10367407;28;20054;-78
2022/01/30 16:42:51;;;;;;;10.90;3.50;;;;;;;3.87;100.00;99295.53;10371008;28;20133;-78
2022/01/30 16:48:00;;;;;;;14.23;4.40;;;;;;;3.71;100.00;99289.28;10384502;28;20054;-77
2022/01/30 16:53:01;;;;;;;14.07;3.88;;;;;;;3.84;100.00;99290.75;10368112;28;20137;-77
2022/01/30 16:58:02;;;;;;;14.07;3.72;;;;;;;3.70;100.00;99289.56;10365862;28;20548;-77
2022/01/30 17:03:03;;;;;;;9.95;3.53;;;;;;;3.69;100.00;99294.06;10369612;28;20061;-77
2022/01/30 17:08:04;;;;;;;9.27;4.50;;;;;;;3.62;100.00;99308.59;10374592;28;20132;-79
2022/01/30 17:13:05;;;;;;;13.50;4.45;;;;;;;3.62;100.00;99312.03;10371299;28;20129;-79
2022/01/30 17:18:11;;;;;;;15.13;6.70;;;;;;;3.60;100.00;99311.50;10369813;28;20056;-78
2022/01/30 17:23:14;;;;;;;16.95;5.28;;;;;;;3.46;100.00;99298.88;10369995;28;20045;-79
2022/01/30 17:28:18;;;;;;;17.75;4.38;;;;;;;3.43;100.00;99294.88;10370704;28;20054;-79
2022/01/30 17:33:20;;;;;;;14.23;4.78;;;;;;;3.56;100.00;99281.19;10367804;28;20056;-79
2022/01/30 17:38:22;;;;;;;14.60;5.17;;;;;;;3.47;100.00;99284.56;10370027;28;20053;-77
2022/01/30 17:43:22;;;;;;;12.52;4.43;;;;;;;3.44;100.00;99285.88;10363109;28;20219;-79
2022/01/30 17:48:23;;;;;;;15.80;4.50;;;;;;;3.59;100.00;99287.88;10379729;28;20116;-78
2022/01/30 17:53:23;;;;;;;10.25;3.95;;;;;;;3.44;100.00;99299.13;10362204;28;20059;-79
2022/01/30 17:58:24;;;;;;;12.48;4.05;;;;;;;3.49;100.00;99304.50;10381663;28;20054;-80
2022/01/30 18:03:26;;;;;;;8.38;3.90;;;;;;;3.48;100.00;99304.75;10372840;28;20026;-78
2022/01/30 18:08:31;;;;;;;14.10;4.15;;;;;;;3.55;100.00;99305.34;10346489;28;20037;-78
2022/01/30 18:13:35;;;;;;;;;;;;;;;3.35;100.00;99297.97;10403660;28;20033;-79
2022/01/30 18:18:35;;;;;;;13.32;4.43;;;;;;;3.45;100.00;99295.44;10380227;28;19921;-78
2022/01/30 18:23:37;;;;;;;12.98;4.10;;;;;;;3.47;100.00;99300.47;10369112;28;20426;-77
2022/01/30 18:28:38;;;;;;;11.93;4.30;;;;;;;3.45;100.00;99286.66;10393878;28;20129;-79
2022/01/30 18:33:39;;;;;;;12.38;4.10;;;;;;;3.45;100.00;99276.84;10373940;28;20046;-78
2022/01/30 18:39:02;;;;;;;12.13;3.85;;;;;;;3.39;100.00;99272.56;10365780;28;20050;-78
2022/01/30 18:44:15;;;;;;;12.73;4.25;;;;;;;3.49;100.00;99285.13;10340624;28;20057;-78
2022/01/30 18:49:17;;;;;;;13.85;3.95;;;;;;;3.49;100.00;99275.31;10364504;28;20062;-78
2022/01/30 18:54:18;;;;;;;12.70;4.50;;;;;;;3.45;100.00;99268.09;10356252;28;20917;-80
2022/01/30 18:59:18;;;;;;;16.33;4.63;;;;;;;3.41;100.00;99265.16;10373493;28;20057;-78
2022/01/30 19:04:20;;;;;;;11.32;3.90;;;;;;;3.45;100.00;99260.13;10361194;28;20050;-79
2022/01/30 19:09:20;;;;;;;11.82;3.63;;;;;;;3.43;100.00;99245.25;10361398;28;20064;-77
2022/01/30 19:14:21;;;;;;;12.48;4.57;;;;;;;3.36;100.00;99244.66;10357771;28;20042;-77
2022/01/30 19:19:24;;;;;;;9.88;4.70;;;;;;;3.37;100.00;99242.81;10368563;28;20073;-77
2022/01/30 19:24:24;;;;;;;18.38;4.68;;;;;;;3.46;100.00;99240.50;10376838;28;20052;-76
2022/01/30 19:29:26;;;;;;;14.93;5.15;;;;;;;3.33;100.00;99215.19;10387791;28;20085;-76
2022/01/30 19:34:27;;;;;;;9.07;3.97;;;;;;;3.36;100.00;99223.44;10374904;28;20081;-77
2022/01/30 19:39:27;;;;;;;11.65;4.40;;;;;;;3.27;100.00;99226.81;10369778;28;20068;-78
2022/01/30 19:44:27;;;;;;;12.30;4.32;;;;;;;3.23;100.00;99210.59;10374368;28;20128;-79
2022/01/30 19:49:29;;;;;;;12.32;4.93;;;;;;;3.28;100.00;99213.28;10376234;28;20046;-82
2022/01/30 19:54:30;;;;;;;12.13;4.07;;;;;;;3.36;100.00;99199.56;10357436;28;20411;-76
2022/01/30 19:59:33;;;;;;;14.02;4.53;;;;;;;3.33;100.00;99180.69;10359066;28;20046;-79
2022/01/30 20:04:34;;;;;;;12.68;4.53;;;;;;;3.28;100.00;99168.19;10373255;28;20077;-77
2022/01/30 20:09:35;;;;;;;16.98;4.68;;;;;;;3.23;100.00;99177.97;10391664;28;20046;-77
2022/01/30 20:14:36;;;;;;;12.07;4.63;;;;;;;3.12;100.00;99183.19;10380537;28;20053;-78
2022/01/30 20:19:37;;;;;;;14.60;3.88;;;;;;;3.22;100.00;99171.06;10379005;28;20050;-77
2022/01/30 20:24:39;;;;;;;15.93;4.20;;;;;;;3.23;100.00;99167.34;10388080;28;20054;-77
2022/01/30 20:29:40;;;;;;;16.52;5.13;;;;;;;3.20;100.00;99149.28;10388030;28;20054;-77
2022/01/30 20:34:43;;;;;;;19.27;5.97;;;;;;;3.10;100.00;99147.34;10402895;28;20038;-77
2022/01/30 20:39:44;;;;;;;;;;;;;;;3.00;100.00;99161.31;10396297;28;20034;-77
2022/01/30 20:44:46;;;;;;;18.27;5.30;;;;;;;3.07;100.00;99143.34;10396685;28;19917;-76
2022/01/30 20:49:46;;;;;;;10.82;4.40;;;;;;;3.12;100.00;99137.31;10365840;28;20342;-77
2022/01/30 20:54:52;;;;;;;11.82;3.83;;;;;;;3.03;100.00;99130.84;10365206;28;20101;-79
2022/01/30 20:59:55;;;;;;;16.52;3.92;;;;;;;3.03;100.00;99123.69;10370751;28;20053;-79
2022/01/30 21:04:55;;;;;;;17.65;4.53;;;;;;;3.10;100.00;99123.47;10367692;28;20492;-77
2022/01/30 21:09:56;;;;;;;13.23;3.75;;;;;;;3.06;100.00;99128.50;10371287;28;20045;-78
2022/01/30 21:14:56;;;;;;;14.88;4.43;;;;;;;2.97;100.00;99122.03;10368263;28;20077;-79
2022/01/30 21:19:57;;;;;;;17.02;4.20;;;;;;;2.99;100.00;99113.84;10368412;28;20058;-79
2022/01/30 21:24:57;;;;;;;15.05;5.63;;;;;;;2.91;100.00;99117.75;10367570;28;20110;-77
2022/01/30 21:29:58;;;;;;;14.40;4.75;;;;;;;2.95;100.00;99105.59;10362564;28;20119;-78
2022/01/30 21:34:58;;;;;;;16.83;4.88;;;;;;;2.98;100.00;99094.47;10362257;28;20064;-78
2022/01/30 21:39:59;;;;;;;15.60;3.92;;;;;;;3.03;100.00;99080.47;10372647;28;20046;-79
2022/01/30 21:45:01;;;;;;;16.25;4.40;;;;;;;2.90;100.00;99078.22;10366751;28;20057;-77
2022/01/30 21:50:03;;;;;;;10.97;3.63;;;;;;;2.87;100.00;99071.59;10378499;28;20053;-78
2022/01/30 21:55:05;;;;;;;11.70;4.50;;;;;;;2.77;100.00;99058.25;10365135;28;20041;-78
2022/01/30 22:00:07;;;;;;;14.82;4.00;;;;;;;2.78;100.00;99055.34;10344302;28;20054;-78
2022/01/30 22:05:11;;;;;;;13.20;4.80;;;;;;;2.82;100.00;99003.41;10360812;28;20049;-78
2022/01/30 22:10:12;;;;;;;13.90;4.43;;;;;;;2.58;100.00;98998.72;10363493;28;20057;-76
2022/01/30 22:15:13;;;;;;;12.45;4.18;;;;;;;2.44;100.00;98990.38;10362357;28;20119;-78
2022/01/30 22:20:15;;;;;;;16.00;3.90;;;;;;;2.27;100.00;98991.28;10361424;28;20054;-78
2022/01/30 22:25:17;;;;;;;16.75;5.05;;;;;;;2.26;100.00;98988.91;10352522;28;20050;-78
2022/01/30 22:30:20;;;;;;;16.33;4.20;;;;;;;2.32;100.00;98971.22;10357049;28;20061;-77
2022/01/30 22:35:21;;;;;;;14.40;5.03;;;;;;;2.20;100.00;98953.66;10348192;28;20080;-78
2022/01/30 22:40:25;;;;;;;16.25;4.70;;;;;;;2.18;100.00;98949.63;10365078;28;20073;-77
2022/01/30 22:45:25;;;;;;;16.50;4.70;;;;;;;1.90;100.00;98925.03;10367830;28;20062;-77
2022/01/30 22:50:26;;;;;;;20.77;5.28;;;;;;;1.79;100.00;98901.38;10388099;28;20432;-77
2022/01/30 22:55:26;;;;;;;13.63;4.13;;;;;;;1.77;100.00;98895.53;10338687;28;20045;-79
2022/01/30 23:00:31;;;;;;;13.52;4.45;;;;;;;1.73;100.00;98876.69;10359313;28;20427;-77
2022/01/30 23:05:32;;;;;;;12.95;4.10;;;;;;;1.73;100.00;98874.03;10361078;28;20060;-77
2022/01/30 23:10:33;;;;;;;11.90;3.95;;;;;;;1.64;100.00;98862.31;10362131;28;20209;-78
2022/01/30 23:15:33;;;;;;;13.48;4.30;;;;;;;1.79;100.00;98851.09;10363252;28;20046;-78
2022/01/30 23:20:34;;;;;;;8.93;3.67;;;;;;;1.80;100.00;98855.31;10358386;28;20042;-77
2022/01/30 23:25:34;;;;;;;13.95;4.88;;;;;;;1.73;100.00;98850.22;10380768;28;20145;-78
2022/01/30 23:30:35;;;;;;;10.13;4.18;;;;;;;1.61;100.00;98837.16;10383779;28;20062;-77
2022/01/30 23:35:36;;;;;;;12.95;4.47;;;;;;;1.56;100.00;98829.19;10398230;28;20042;-78
2022/01/30 23:40:38;;;;;;;14.45;4.43;;;;;;;1.38;100.00;98817.13;10392865;28;20064;-79
2022/01/30 23:45:39;;;;;;;10.90;3.00;;;;;;;1.36;100.00;98810.47;10384857;28;20042;-77
2022/01/30 23:50:41;;;;;;;10.77;3.65;;;;;;;1.25;100.00;98803.47;10386013;28;20064;-77
2022/01/30 23:55:41;;;;;;;13.98;3.47;;;;;;;1.11;100.00;98776.66;10391545;28;20048;-77
